Time;durP1;ratioP1;P1;durP2;ratioP2;P2;SDS_P1;SDS_P2;PMS_P1;PMS_P2;Temp;Humidity;BMP_temperature;BMP_pressure;BME280_temperature;BME280_humidity;BME280_pressure;Samples;Min_cycle;Max_cycle;Signal;HPM_P1;HPM_P2
2023/10/18 00:00:50;;;;;;;10.40;9.30;;;8.50;99.90;;;;;;2104268;28;20066;-73
2023/10/18 00:01:50;;;;;;;11.70;10.60;;;8.50;99.90;;;;;;2095135;28;20495;-74
2023/10/18 00:02:54;;;;;;;11.45;10.23;;;8.50;99.90;;;;;;2100862;28;20077;-72
2023/10/18 00:03:56;;;;;;;12.32;11.27;;;8.50;99.90;;;;;;2100180;28;20020;-73
2023/10/18 00:04:57;;;;;;;12.95;11.32;;;8.50;99.90;;;;;;2103077;28;20763;-73
2023/10/18 00:05:59;;;;;;;11.95;10.80;;;8.50;99.90;;;;;;2101639;28;20020;-73
2023/10/18 00:07:00;;;;;;;11.23;10.18;;;8.50;99.90;;;;;;2102743;28;20107;-74
2023/10/18 00:08:03;;;;;;;12.05;10.93;;;8.50;99.90;;;;;;2100711;28;20028;-73
2023/10/18 00:10:44;;;;;;;13.15;10.35;;;8.50;99.90;;;;;;2083489;28;20472;-72
2023/10/18 00:11:44;;;;;;;12.02;10.82;;;8.40;99.90;;;;;;2085927;28;20381;-72
2023/10/18 00:12:45;;;;;;;12.32;11.18;;;8.40;99.90;;;;;;2084474;28;20025;-72
2023/10/18 00:13:49;;;;;;;12.52;11.25;;;8.40;99.90;;;;;;2075854;28;20022;-72
2023/10/18 00:14:51;;;;;;;11.98;10.77;;;8.40;99.90;;;;;;2074068;28;20029;-74
2023/10/18 00:16:05;;;;;;;12.25;10.90;;;8.40;99.90;;;;;;2082443;28;20029;-72
2023/10/18 00:17:06;;;;;;;13.85;10.65;;;8.40;99.90;;;;;;2102644;28;20080;-73
2023/10/18 00:18:11;;;;;;;12.55;11.35;;;8.30;99.90;;;;;;2098406;28;20123;-73
2023/10/18 00:19:13;;;;;;;12.20;11.00;;;8.30;99.90;;;;;;2099206;28;20027;-72
2023/10/18 00:20:13;;;;;;;12.15;10.93;;;8.30;99.90;;;;;;2101196;28;20020;-72
2023/10/18 00:21:14;;;;;;;11.35;10.25;;;8.30;99.90;;;;;;2096561;28;20021;-72
2023/10/18 00:22:15;;;;;;;14.20;11.18;;;8.30;99.90;;;;;;2106154;28;20035;-73
2023/10/18 00:23:16;;;;;;;11.60;10.48;;;8.20;99.90;;;;;;2103958;28;20119;-73
2023/10/18 00:24:16;;;;;;;11.85;10.75;;;8.30;99.90;;;;;;2102747;28;20023;-72
2023/10/18 00:25:19;;;;;;;12.20;10.93;;;8.20;99.90;;;;;;2107496;28;20043;-73
2023/10/18 00:26:20;;;;;;;12.63;10.70;;;8.20;99.90;;;;;;2102756;28;20041;-72
2023/10/18 00:27:21;;;;;;;12.20;10.68;;;8.20;99.90;;;;;;2103206;28;20100;-72
2023/10/18 00:28:22;;;;;;;12.20;10.90;;;8.20;99.90;;;;;;2103515;28;20028;-73
2023/10/18 00:29:23;;;;;;;11.65;10.32;;;8.20;99.90;;;;;;2103569;28;20107;-73
2023/10/18 00:30:27;;;;;;;11.45;10.05;;;8.10;99.90;;;;;;2097520;28;20028;-73
2023/10/18 00:31:27;;;;;;;11.82;10.70;;;8.20;99.90;;;;;;2102501;28;20058;-72
2023/10/18 00:32:32;;;;;;;12.13;11.05;;;8.10;99.90;;;;;;2106092;28;20035;-73
2023/10/18 00:33:32;;;;;;;12.90;11.63;;;8.10;99.90;;;;;;2101224;28;20028;-72
2023/10/18 00:34:33;;;;;;;11.38;10.27;;;8.10;99.90;;;;;;2102628;28;20028;-72
2023/10/18 00:35:36;;;;;;;12.32;11.02;;;8.10;99.90;;;;;;2102703;28;20055;-73
2023/10/18 00:36:36;;;;;;;10.43;9.43;;;8.10;99.90;;;;;;2103202;28;20029;-73
2023/10/18 00:37:37;;;;;;;11.40;10.30;;;8.10;99.90;;;;;;2101794;28;20024;-72
2023/10/18 00:38:41;;;;;;;11.88;10.75;;;8.10;99.90;;;;;;2102308;28;20024;-72
2023/10/18 00:39:42;;;;;;;11.93;10.82;;;8.20;99.90;;;;;;2101392;28;20034;-72
2023/10/18 00:40:50;;;;;;;12.27;10.60;;;8.10;99.90;;;;;;2102990;28;20051;-73
2023/10/18 00:41:53;;;;;;;12.23;11.05;;;8.10;99.90;;;;;;2099794;28;20028;-73
2023/10/18 00:42:53;;;;;;;11.65;10.65;;;8.10;99.90;;;;;;2102623;28;20116;-72
2023/10/18 00:43:55;;;;;;;11.60;10.43;;;8.10;99.90;;;;;;2102177;28;20028;-73
2023/10/18 00:45:01;;;;;;;12.55;11.35;;;8.10;99.90;;;;;;2100208;28;20260;-72
2023/10/18 00:46:06;;;;;;;11.88;10.77;;;8.00;99.90;;;;;;2100158;28;20021;-73
2023/10/18 00:47:08;;;;;;;12.98;11.63;;;8.00;99.90;;;;;;2100900;28;20024;-72
2023/10/18 00:48:11;;;;;;;12.27;10.98;;;8.00;99.90;;;;;;2099085;28;20024;-71
2023/10/18 00:49:14;;;;;;;12.90;11.60;;;8.00;99.90;;;;;;2092648;28;20046;-72
2023/10/18 00:50:18;;;;;;;12.70;11.43;;;8.00;99.90;;;;;;2102534;28;20021;-72
2023/10/18 00:51:19;;;;;;;13.18;11.88;;;8.00;99.90;;;;;;2100603;28;20046;-72
2023/10/18 00:52:21;;;;;;;12.88;11.60;;;8.00;99.90;;;;;;2100497;28;20012;-72
2023/10/18 00:53:23;;;;;;;12.80;11.50;;;7.90;99.90;;;;;;2100659;28;20028;-72
2023/10/18 00:54:26;;;;;;;10.60;9.65;;;7.90;99.90;;;;;;2100559;28;20017;-72
2023/10/18 00:55:26;;;;;;;12.05;10.90;;;8.00;99.90;;;;;;2097961;28;20030;-72
2023/10/18 00:56:27;;;;;;;12.73;11.50;;;7.90;99.90;;;;;;2100092;28;20017;-73
2023/10/18 00:57:34;;;;;;;12.88;11.57;;;7.90;99.90;;;;;;2102522;28;20126;-73
2023/10/18 00:58:35;;;;;;;12.50;11.23;;;7.90;99.90;;;;;;2101793;28;20024;-72
2023/10/18 00:59:38;;;;;;;12.52;11.20;;;7.90;99.90;;;;;;2099038;28;20107;-73
2023/10/18 01:00:41;;;;;;;12.05;10.95;;;7.90;99.90;;;;;;2097858;28;20027;-73
2023/10/18 01:01:44;;;;;;;11.60;10.30;;;7.90;99.90;;;;;;2101446;28;20028;-73
2023/10/18 01:02:48;;;;;;;11.82;10.63;;;7.90;99.90;;;;;;2102871;28;20016;-73
2023/10/18 01:03:49;;;;;;;12.70;11.45;;;7.90;99.90;;;;;;2092071;28;20029;-73
2023/10/18 01:04:52;;;;;;;12.77;11.40;;;7.90;99.90;;;;;;2098934;28;20029;-72
2023/10/18 01:06:27;;;;;;;12.18;10.98;;;7.90;99.90;;;;;;2099811;28;20375;-73
2023/10/18 01:07:27;;;;;;;14.50;11.43;;;7.90;99.90;;;;;;2091702;28;20713;-72
2023/10/18 01:08:29;;;;;;;13.85;11.05;;;7.90;99.90;;;;;;2098768;28;20044;-73
2023/10/18 01:09:29;;;;;;;12.05;10.52;;;7.90;99.90;;;;;;2098244;28;20023;-72
2023/10/18 01:10:30;;;;;;;12.40;11.30;;;7.90;99.90;;;;;;2099366;28;20036;-73
2023/10/18 01:11:31;;;;;;;12.75;11.15;;;7.90;99.90;;;;;;2098477;28;20035;-73
2023/10/18 01:12:34;;;;;;;12.55;11.25;;;7.90;99.90;;;;;;2099923;28;20028;-73
2023/10/18 01:13:37;;;;;;;11.38;10.20;;;7.90;99.90;;;;;;2098288;28;20104;-73
2023/10/18 01:14:37;;;;;;;10.75;9.75;;;7.90;99.90;;;;;;2098244;28;20025;-73
2023/10/18 01:15:38;;;;;;;11.40;10.23;;;7.90;99.90;;;;;;2100280;28;20040;-73
2023/10/18 01:16:38;;;;;;;10.07;9.18;;;7.90;99.90;;;;;;2097864;28;20463;-72
2023/10/18 01:17:43;;;;;;;11.20;10.10;;;7.90;99.90;;;;;;2096903;28;20036;-73
2023/10/18 01:18:44;;;;;;;12.57;10.70;;;7.90;99.90;;;;;;2099698;28;20020;-73
2023/10/18 01:19:45;;;;;;;12.05;10.77;;;7.90;99.90;;;;;;2101198;28;20035;-73
2023/10/18 01:20:47;;;;;;;11.60;10.52;;;7.90;99.90;;;;;;2098826;28;20032;-73
2023/10/18 01:21:51;;;;;;;12.05;10.95;;;7.90;99.90;;;;;;2095104;28;20051;-74
2023/10/18 01:22:52;;;;;;;10.25;9.25;;;7.90;99.90;;;;;;2093327;28;20028;-72
2023/10/18 01:23:55;;;;;;;10.32;9.43;;;7.90;99.90;;;;;;2099448;28;20021;-73
2023/10/18 01:24:56;;;;;;;11.32;10.23;;;7.90;99.90;;;;;;2105325;28;20023;-73
2023/10/18 01:25:58;;;;;;;11.27;10.27;;;7.90;99.90;;;;;;2105560;28;20091;-73
2023/10/18 01:26:58;;;;;;;10.05;9.15;;;7.90;99.90;;;;;;2099568;28;20704;-73
2023/10/18 01:27:59;;;;;;;11.32;10.23;;;7.90;99.90;;;;;;2098570;28;20021;-73
2023/10/18 01:29:04;;;;;;;11.25;9.95;;;7.90;99.90;;;;;;2097882;28;20029;-73
2023/10/18 01:30:06;;;;;;;11.63;10.52;;;8.00;99.90;;;;;;2098378;28;20020;-73
2023/10/18 01:31:07;;;;;;;12.18;11.05;;;8.00;99.90;;;;;;2100964;28;20032;-73
2023/10/18 01:32:08;;;;;;;12.35;11.15;;;8.00;99.90;;;;;;2099719;28;20483;-73
2023/10/18 01:33:13;;;;;;;12.90;11.65;;;7.90;99.90;;;;;;2099849;28;20070;-73
2023/10/18 01:34:14;;;;;;;11.40;10.40;;;7.90;99.90;;;;;;2100961;28;20026;-72
2023/10/18 01:35:15;;;;;;;12.65;11.40;;;7.90;99.90;;;;;;2100656;28;20028;-73
2023/10/18 01:36:18;;;;;;;11.98;10.75;;;7.90;99.90;;;;;;2098915;28;20103;-73
2023/10/18 01:37:20;;;;;;;12.48;11.20;;;7.90;99.90;;;;;;2097807;28;20024;-72
2023/10/18 01:38:25;;;;;;;11.38;10.15;;;7.90;99.90;;;;;;2098384;28;20028;-72
2023/10/18 01:39:29;;;;;;;11.82;10.63;;;7.90;99.90;;;;;;2101456;28;20521;-72
2023/10/18 01:41:30;;;;;;;11.18;10.18;;;7.80;99.90;;;;;;2099095;28;20021;-73
2023/10/18 01:42:30;;;;;;;12.00;10.90;;;7.80;99.90;;;;;;2099466;28;20608;-72
2023/10/18 01:43:36;;;;;;;11.88;10.77;;;7.80;99.90;;;;;;2098777;28;20085;-74
2023/10/18 01:44:38;;;;;;;13.05;11.70;;;7.80;99.90;;;;;;2097815;28;20074;-73
2023/10/18 01:45:42;;;;;;;12.18;11.00;;;7.70;99.90;;;;;;2099560;28;20090;-73
2023/10/18 01:46:45;;;;;;;12.43;11.23;;;7.80;99.90;;;;;;2099370;28;20503;-73
2023/10/18 01:47:48;;;;;;;12.45;11.18;;;7.80;99.90;;;;;;2099376;28;20133;-73
2023/10/18 01:48:52;;;;;;;12.18;11.00;;;7.70;99.90;;;;;;2101576;28;20058;-73
2023/10/18 01:49:53;;;;;;;12.02;10.93;;;7.70;99.90;;;;;;2098662;28;20063;-73
2023/10/18 01:50:54;;;;;;;11.77;10.55;;;7.70;99.90;;;;;;2098572;28;20032;-73
2023/10/18 01:51:57;;;;;;;12.65;11.45;;;7.80;99.90;;;;;;2102413;28;20115;-73
2023/10/18 01:53:00;;;;;;;12.77;11.65;;;7.70;99.90;;;;;;2101570;28;20458;-73
2023/10/18 01:54:05;;;;;;;12.45;11.35;;;7.70;99.90;;;;;;2101618;28;20127;-73
2023/10/18 01:55:06;;;;;;;12.90;11.70;;;7.70;99.90;;;;;;2092945;28;20029;-72
2023/10/18 01:56:08;;;;;;;12.35;11.30;;;7.70;99.90;;;;;;2092007;28;20037;-72
2023/10/18 01:57:11;;;;;;;14.73;12.32;;;7.70;99.90;;;;;;2102234;28;20064;-73
2023/10/18 01:58:13;;;;;;;13.13;11.75;;;7.70;99.90;;;;;;2097948;28;20020;-73
2023/10/18 01:59:17;;;;;;;14.63;11.65;;;7.70;99.90;;;;;;2099986;28;20027;-73
2023/10/18 02:00:34;;;;;;;11.75;10.65;;;7.70;99.90;;;;;;2097736;28;20020;-72
2023/10/18 02:01:34;;;;;;;12.45;11.32;;;7.70;99.90;;;;;;2097739;28;20379;-73
2023/10/18 02:02:35;;;;;;;13.32;11.43;;;7.70;99.90;;;;;;2098746;28;20032;-72
2023/10/18 02:03:39;;;;;;;11.07;10.05;;;7.70;99.90;;;;;;2097592;28;20603;-74
2023/10/18 02:04:40;;;;;;;12.30;11.05;;;7.70;99.90;;;;;;2099099;28;20025;-74
2023/10/18 02:05:51;;;;;;;12.20;11.15;;;7.70;99.90;;;;;;2097387;28;20519;-73
2023/10/18 02:07:01;;;;;;;14.25;12.07;;;7.70;99.90;;;;;;2098710;28;20039;-73
2023/10/18 02:08:03;;;;;;;;;;;7.70;99.90;;;;;;2103525;28;20062;-73
2023/10/18 02:09:10;;;;;;;13.55;11.88;;;7.60;99.90;;;;;;2101341;28;19936;-73
2023/10/18 02:10:11;;;;;;;13.30;10.55;;;7.60;99.90;;;;;;2099082;28;20368;-73
2023/10/18 02:11:12;;;;;;;13.02;11.73;;;7.60;99.90;;;;;;2097585;28;20017;-73
2023/10/18 02:12:15;;;;;;;13.23;11.23;;;7.70;99.90;;;;;;2102302;28;20052;-73
2023/10/18 02:13:18;;;;;;;12.13;10.93;;;7.70;99.90;;;;;;2101910;28;20035;-73
2023/10/18 02:14:19;;;;;;;14.02;12.82;;;7.70;99.90;;;;;;2098582;28;20149;-73
2023/10/18 02:15:20;;;;;;;12.23;10.93;;;7.70;99.90;;;;;;2098455;28;20086;-73
2023/10/18 02:16:22;;;;;;;11.40;10.43;;;7.70;99.90;;;;;;2099182;28;20020;-73
2023/10/18 02:17:22;;;;;;;12.55;10.90;;;7.70;99.90;;;;;;2098415;28;20017;-73
2023/10/18 02:18:23;;;;;;;13.40;12.18;;;7.70;99.90;;;;;;2099979;28;20027;-73
2023/10/18 02:19:24;;;;;;;13.65;12.23;;;7.70;99.90;;;;;;2101700;28;20028;-72
2023/10/18 02:20:27;;;;;;;14.02;12.68;;;7.70;99.90;;;;;;2105986;28;20478;-73
2023/10/18 02:21:27;;;;;;;13.05;11.73;;;7.70;99.90;;;;;;2105897;28;20100;-73
2023/10/18 02:22:28;;;;;;;13.32;12.02;;;7.70;99.90;;;;;;2100285;28;20032;-72
2023/10/18 02:23:35;;;;;;;13.82;12.27;;;7.70;99.90;;;;;;2098073;28;20024;-73
2023/10/18 02:24:36;;;;;;;13.98;12.57;;;7.70;99.90;;;;;;2098401;28;20468;-72
2023/10/18 02:25:44;;;;;;;15.98;12.38;;;7.70;99.90;;;;;;2096975;28;20367;-74
2023/10/18 02:26:54;;;;;;;14.30;12.90;;;7.70;99.90;;;;;;2098799;28;20048;-72
2023/10/18 02:27:54;;;;;;;14.50;13.00;;;7.70;99.90;;;;;;2099654;28;20392;-73
2023/10/18 02:28:55;;;;;;;13.60;12.20;;;7.70;99.90;;;;;;2099730;28;20052;-72
2023/10/18 02:29:55;;;;;;;15.00;12.57;;;7.70;99.90;;;;;;2102743;28;20056;-73
2023/10/18 02:30:59;;;;;;;12.13;10.93;;;7.70;99.90;;;;;;2103080;28;20024;-72
2023/10/18 02:32:04;;;;;;;16.05;13.63;;;7.70;99.90;;;;;;2099890;28;20123;-72
2023/10/18 02:33:05;;;;;;;16.42;13.25;;;7.70;99.90;;;;;;2097984;28;20423;-73
2023/10/18 02:34:06;;;;;;;14.98;12.73;;;7.70;99.90;;;;;;2098442;28;20127;-72
2023/10/18 02:35:09;;;;;;;12.35;11.13;;;7.70;99.90;;;;;;2097526;28;20027;-72
2023/10/18 02:36:11;;;;;;;12.38;11.02;;;7.70;99.90;;;;;;2101383;28;20027;-73
2023/10/18 02:37:12;;;;;;;13.02;11.70;;;7.70;99.90;;;;;;2100798;28;20025;-73
2023/10/18 02:38:14;;;;;;;13.90;12.45;;;7.70;99.90;;;;;;2096723;28;20063;-73
2023/10/18 02:39:27;;;;;;;14.50;12.73;;;7.70;99.90;;;;;;2097675;28;20071;-72
2023/10/18 02:40:31;;;;;;;14.63;13.13;;;7.70;99.90;;;;;;2101233;28;20530;-73
2023/10/18 02:41:34;;;;;;;13.65;12.35;;;7.70;99.90;;;;;;2103324;28;20026;-73
2023/10/18 02:42:35;;;;;;;13.98;12.68;;;7.60;99.90;;;;;;2106744;28;20028;-73
2023/10/18 02:43:35;;;;;;;15.70;13.45;;;7.60;99.90;;;;;;2098974;28;20032;-73
2023/10/18 02:44:37;;;;;;;17.00;13.32;;;7.60;99.90;;;;;;2098625;28;20495;-73
2023/10/18 02:45:50;;;;;;;13.93;12.48;;;7.60;99.90;;;;;;2101669;28;20479;-72
2023/10/18 02:46:55;;;;;;;14.18;12.68;;;7.60;99.90;;;;;;2100868;28;20142;-73
2023/10/18 02:47:55;;;;;;;14.32;12.95;;;7.60;99.90;;;;;;2097716;28;20044;-73
2023/10/18 02:48:57;;;;;;;15.38;13.82;;;7.60;99.90;;;;;;2099827;28;20048;-73
2023/10/18 02:49:58;;;;;;;13.68;12.23;;;7.50;99.90;;;;;;2099961;28;20349;-73
2023/10/18 02:51:02;;;;;;;14.57;13.13;;;7.60;99.90;;;;;;2099128;28;20108;-73
2023/10/18 02:52:03;;;;;;;14.02;12.63;;;7.60;99.90;;;;;;2098234;28;20376;-73
2023/10/18 02:53:06;;;;;;;14.32;12.90;;;7.50;99.90;;;;;;2099706;28;20140;-73
2023/10/18 02:54:22;;;;;;;13.38;12.07;;;7.50;99.90;;;;;;2101620;28;20173;-73
2023/10/18 02:55:26;;;;;;;13.55;12.35;;;7.50;99.90;;;;;;2101422;28;20125;-74
2023/10/18 02:56:27;;;;;;;13.75;12.35;;;7.50;99.90;;;;;;2102443;28;20021;-73
2023/10/18 02:57:28;;;;;;;12.93;11.60;;;7.50;99.90;;;;;;2099425;28;20518;-73
2023/10/18 02:58:28;;;;;;;14.27;12.77;;;7.50;99.90;;;;;;2100626;28;20450;-73
2023/10/18 02:59:29;;;;;;;14.43;12.93;;;7.50;99.90;;;;;;2100091;28;20071;-73
2023/10/18 03:00:34;;;;;;;13.25;11.88;;;7.50;99.90;;;;;;2091146;28;20814;-73
2023/10/18 03:01:39;;;;;;;13.15;11.95;;;7.50;99.90;;;;;;2097961;28;20032;-73
2023/10/18 03:02:39;;;;;;;12.90;11.57;;;7.50;99.90;;;;;;2098917;28;20031;-73
2023/10/18 03:03:42;;;;;;;14.68;12.52;;;7.50;99.90;;;;;;2097554;28;20036;-73
2023/10/18 03:04:43;;;;;;;13.80;12.40;;;7.50;99.90;;;;;;2097739;28;20020;-73
2023/10/18 03:05:44;;;;;;;14.15;12.65;;;7.50;99.90;;;;;;2099848;28;20040;-73
2023/10/18 03:06:50;;;;;;;13.63;12.23;;;7.50;99.90;;;;;;2097328;28;20012;-73
2023/10/18 03:07:50;;;;;;;13.35;11.95;;;7.50;99.90;;;;;;2096765;28;20032;-74
2023/10/18 03:08:51;;;;;;;14.48;12.27;;;7.50;99.90;;;;;;2100524;28;20027;-74
2023/10/18 03:09:53;;;;;;;11.48;10.43;;;7.50;99.90;;;;;;2106459;28;20086;-74
2023/10/18 03:10:53;;;;;;;13.30;11.15;;;7.50;99.90;;;;;;2104942;28;20111;-73
2023/10/18 03:11:55;;;;;;;12.27;11.13;;;7.50;99.90;;;;;;2105993;28;20032;-74
2023/10/18 03:12:56;;;;;;;13.40;12.00;;;7.50;99.90;;;;;;2102279;28;20032;-73
2023/10/18 03:13:57;;;;;;;14.20;11.98;;;7.50;99.90;;;;;;2106950;28;20036;-72
2023/10/18 03:14:59;;;;;;;13.38;12.00;;;7.50;99.90;;;;;;2100319;28;20099;-73
2023/10/18 03:16:15;;;;;;;13.20;11.88;;;7.50;99.90;;;;;;2103848;28;20032;-73
2023/10/18 03:17:23;;;;;;;13.30;11.63;;;7.50;99.90;;;;;;2105716;28;20064;-73
2023/10/18 03:18:24;;;;;;;11.35;10.23;;;7.50;99.90;;;;;;2102372;28;20040;-73
2023/10/18 03:19:25;;;;;;;12.48;11.18;;;7.50;99.90;;;;;;2096358;28;20024;-73
2023/10/18 03:20:26;;;;;;;12.10;10.90;;;7.50;99.90;;;;;;2102995;28;20055;-73
2023/10/18 03:21:33;;;;;;;13.82;12.05;;;7.50;99.90;;;;;;2107312;28;20021;-73
2023/10/18 03:22:37;;;;;;;13.23;11.30;;;7.50;99.90;;;;;;2104562;28;20103;-73
2023/10/18 03:23:44;;;;;;;13.55;11.07;;;7.50;99.90;;;;;;2103734;28;20027;-73
2023/10/18 03:24:54;;;;;;;11.65;10.55;;;7.50;99.90;;;;;;2105187;28;20025;-73
2023/10/18 03:26:07;;;;;;;13.60;12.30;;;7.50;99.90;;;;;;2103633;28;20040;-73
2023/10/18 03:27:08;;;;;;;13.18;11.77;;;7.50;99.90;;;;;;2105252;28;20116;-74
2023/10/18 03:28:13;;;;;;;15.95;11.25;;;7.50;99.90;;;;;;2104121;28;20028;-74
2023/10/18 03:29:16;;;;;;;12.70;11.27;;;7.50;99.90;;;;;;2109337;28;20028;-73
2023/10/18 03:30:23;;;;;;;13.48;10.98;;;7.50;99.90;;;;;;2108063;28;20057;-73
2023/10/18 03:32:27;;;;;;;12.43;11.13;;;7.50;99.90;;;;;;2105848;28;20016;-73
2023/10/18 03:33:28;;;;;;;13.75;12.40;;;7.50;99.90;;;;;;2106421;28;20020;-73
2023/10/18 03:34:29;;;;;;;13.32;11.90;;;7.50;99.90;;;;;;2105462;28;20479;-74
2023/10/18 03:35:31;;;;;;;13.38;11.98;;;7.40;99.90;;;;;;2103649;28;20077;-74
2023/10/18 03:36:33;;;;;;;12.55;11.25;;;7.40;99.90;;;;;;2103054;28;20027;-74
2023/10/18 03:37:33;;;;;;;13.90;11.27;;;7.50;99.90;;;;;;2106032;28;20012;-73
2023/10/18 03:38:41;;;;;;;12.10;10.90;;;7.50;99.90;;;;;;2096904;28;20607;-73
2023/10/18 03:39:42;;;;;;;13.57;11.05;;;7.40;99.90;;;;;;2100481;28;20082;-74
2023/10/18 03:40:47;;;;;;;15.25;11.55;;;7.40;99.90;;;;;;2108027;28;20031;-75
2023/10/18 03:41:49;;;;;;;11.95;10.85;;;7.40;99.90;;;;;;2103631;28;20024;-73
2023/10/18 03:42:51;;;;;;;11.75;10.55;;;7.40;99.90;;;;;;2106563;28;20025;-74
2023/10/18 03:44:03;;;;;;;11.52;10.38;;;7.40;99.90;;;;;;2105268;28;20105;-74
2023/10/18 03:45:20;;;;;;;11.80;10.70;;;7.40;99.90;;;;;;2104202;28;20492;-74
2023/10/18 03:46:29;;;;;;;11.57;10.43;;;7.40;99.90;;;;;;2108854;28;20075;-74
2023/10/18 03:47:36;;;;;;;12.30;10.18;;;7.40;99.90;;;;;;2108500;28;20633;-74
2023/10/18 03:48:55;;;;;;;12.75;11.15;;;7.40;99.90;;;;;;2109067;28;20035;-74
2023/10/18 03:49:58;;;;;;;9.55;8.75;;;7.30;99.90;;;;;;2107788;28;20028;-74
2023/10/18 03:51:00;;;;;;;10.65;9.57;;;7.30;99.90;;;;;;2111789;28;20027;-74
2023/10/18 03:52:16;;;;;;;10.38;9.48;;;7.40;99.90;;;;;;2104676;28;20046;-73
2023/10/18 03:53:21;;;;;;;11.50;9.45;;;7.40;99.90;;;;;;2103834;28;20054;-73
2023/10/18 03:54:23;;;;;;;11.13;10.05;;;7.40;99.90;;;;;;2110576;28;20095;-73
2023/10/18 03:55:36;;;;;;;10.98;9.98;;;7.30;99.90;;;;;;2105299;28;20028;-73
2023/10/18 03:56:42;;;;;;;10.85;9.32;;;7.30;99.90;;;;;;2104459;28;20059;-73
2023/10/18 03:57:43;;;;;;;10.05;9.05;;;7.30;99.90;;;;;;2105747;28;20086;-74
2023/10/18 03:58:49;;;;;;;10.13;9.20;;;7.30;99.90;;;;;;2107151;28;20025;-74
2023/10/18 03:59:52;;;;;;;11.38;9.20;;;7.30;99.90;;;;;;2108569;28;20049;-74
2023/10/18 04:00:56;;;;;;;9.40;8.50;;;7.30;99.90;;;;;;2108669;28;20032;-73
2023/10/18 04:02:07;;;;;;;9.70;8.82;;;7.30;99.90;;;;;;2105914;28;20017;-74
2023/10/18 04:03:09;;;;;;;10.52;9.63;;;7.30;99.90;;;;;;2105473;28;20083;-74
2023/10/18 04:04:18;;;;;;;10.75;9.70;;;7.30;99.90;;;;;;2105750;28;20046;-73
2023/10/18 04:06:38;;;;;;;9.35;8.55;;;7.30;99.90;;;;;;2106688;28;20024;-74
2023/10/18 04:07:41;;;;;;;10.50;9.50;;;7.30;99.90;;;;;;2104019;28;20037;-73
2023/10/18 04:08:42;;;;;;;10.65;9.57;;;7.30;99.90;;;;;;2105641;28;20346;-73
2023/10/18 04:10:06;;;;;;;9.80;8.85;;;7.30;99.90;;;;;;2099760;28;20035;-73
2023/10/18 04:11:08;;;;;;;10.38;9.35;;;7.30;99.90;;;;;;2107214;28;20020;-74
2023/10/18 04:12:08;;;;;;;10.32;9.40;;;7.20;99.90;;;;;;2105098;28;20022;-74
2023/10/18 04:13:13;;;;;;;9.93;9.00;;;7.30;99.90;;;;;;2108287;28;20024;-74
2023/10/18 04:14:16;;;;;;;11.13;10.13;;;7.20;99.90;;;;;;2109757;28;20009;-74
2023/10/18 04:15:29;;;;;;;10.20;9.25;;;7.20;99.90;;;;;;2105914;28;20024;-74
2023/10/18 04:16:30;;;;;;;11.00;10.02;;;7.20;99.90;;;;;;2105176;28;20016;-73
2023/10/18 04:18:35;;;;;;;10.27;9.02;;;7.20;99.90;;;;;;2104142;28;20024;-73
2023/10/18 04:19:35;;;;;;;10.00;9.00;;;7.20;99.90;;;;;;2100070;28;20028;-73
2023/10/18 04:20:37;;;;;;;10.23;9.25;;;7.20;99.90;;;;;;2099825;28;20046;-72
2023/10/18 04:21:38;;;;;;;10.38;9.38;;;7.20;99.90;;;;;;2099594;28;20028;-73
2023/10/18 04:22:38;;;;;;;10.38;9.05;;;7.20;99.90;;;;;;2099623;28;20035;-73
2023/10/18 04:23:39;;;;;;;9.98;8.75;;;7.20;99.90;;;;;;2099084;28;20027;-73
2023/10/18 04:24:39;;;;;;;11.10;10.10;;;7.20;99.90;;;;;;2100160;28;20035;-72
2023/10/18 04:25:43;;;;;;;11.43;10.27;;;7.20;99.90;;;;;;2099507;28;20483;-72
2023/10/18 04:26:45;;;;;;;10.35;9.27;;;7.20;99.90;;;;;;2099705;28;20036;-73
2023/10/18 04:27:45;;;;;;;11.93;10.45;;;7.10;99.90;;;;;;2099168;28;20028;-73
2023/10/18 04:28:48;;;;;;;15.13;11.75;;;7.10;99.90;;;;;;2099497;28;20036;-73
2023/10/18 04:29:49;;;;;;;10.43;9.40;;;7.10;99.90;;;;;;2098330;28;20467;-73
2023/10/18 04:30:59;;;;;;;12.48;11.27;;;7.10;99.90;;;;;;2100061;28;20440;-72
2023/10/18 04:32:06;;;;;;;;;;;7.10;99.90;;;;;;2099589;28;20028;-73
2023/10/18 04:33:24;;;;;;;11.38;10.23;;;7.00;99.90;;;;;;2096340;28;19916;-72
2023/10/18 04:34:29;;;;;;;12.10;10.98;;;7.00;99.90;;;;;;2100472;28;20024;-72
2023/10/18 04:35:32;;;;;;;11.60;10.50;;;7.00;99.90;;;;;;2099061;28;20237;-72
2023/10/18 04:36:34;;;;;;;12.43;10.82;;;7.00;99.90;;;;;;2098534;28;20044;-73
2023/10/18 04:37:35;;;;;;;11.60;10.43;;;7.00;99.90;;;;;;2100102;28;20058;-73
2023/10/18 04:38:42;;;;;;;12.80;11.60;;;7.00;99.90;;;;;;2102957;28;20032;-73
2023/10/18 04:39:43;;;;;;;12.50;10.98;;;7.00;99.90;;;;;;2101872;28;20032;-73
2023/10/18 04:42:03;;;;;;;14.68;11.25;;;7.00;99.90;;;;;;2098673;28;20029;-73
2023/10/18 04:43:06;;;;;;;12.50;11.27;;;7.00;99.90;;;;;;2098619;28;20023;-73
2023/10/18 04:44:08;;;;;;;13.20;11.90;;;7.00;99.90;;;;;;2100116;28;20043;-73
2023/10/18 04:45:16;;;;;;;12.18;10.57;;;7.00;99.90;;;;;;2097809;28;20036;-72
2023/10/18 04:46:22;;;;;;;12.88;11.77;;;7.00;99.90;;;;;;2098856;28;20020;-73
2023/10/18 04:47:32;;;;;;;12.70;11.50;;;7.00;99.90;;;;;;2101522;28;20073;-72
2023/10/18 04:50:00;;;;;;;12.60;11.45;;;7.00;99.90;;;;;;2100487;28;20027;-73
2023/10/18 04:51:06;;;;;;;12.63;11.32;;;6.90;99.90;;;;;;2098751;28;20024;-73
2023/10/18 04:52:07;;;;;;;14.40;12.50;;;6.90;99.90;;;;;;2099625;28;20822;-73
2023/10/18 04:53:14;;;;;;;12.30;11.07;;;6.90;99.90;;;;;;2099192;28;20045;-73
2023/10/18 04:54:15;;;;;;;12.43;11.18;;;6.90;99.90;;;;;;2101416;28;20403;-72
2023/10/18 04:55:16;;;;;;;12.45;11.25;;;6.90;99.90;;;;;;2099251;28;20559;-72
2023/10/18 04:56:17;;;;;;;14.55;11.43;;;6.90;99.90;;;;;;2098724;28;20415;-73
2023/10/18 04:57:17;;;;;;;12.25;11.10;;;6.90;99.90;;;;;;2093788;28;20035;-73
2023/10/18 04:58:19;;;;;;;10.52;9.43;;;6.90;99.90;;;;;;2103126;28;20032;-72
2023/10/18 04:59:29;;;;;;;13.02;11.73;;;6.90;99.90;;;;;;2102439;28;20053;-73
2023/10/18 05:00:50;;;;;;;11.40;10.32;;;6.90;99.90;;;;;;2096156;28;20076;-72
2023/10/18 05:03:02;;;;;;;10.63;9.63;;;6.90;99.90;;;;;;2098485;28;20020;-72
2023/10/18 05:04:18;;;;;;;12.13;10.93;;;6.90;99.90;;;;;;2099515;28;20522;-73
2023/10/18 05:05:19;;;;;;;12.63;11.10;;;6.90;99.90;;;;;;2099771;28;20016;-73
2023/10/18 05:06:28;;;;;;;12.10;11.00;;;6.90;99.90;;;;;;2099967;28;20035;-74
2023/10/18 05:07:42;;;;;;;12.85;11.38;;;6.90;99.90;;;;;;2099501;28;20018;-73
2023/10/18 05:08:42;;;;;;;12.57;11.38;;;6.90;99.90;;;;;;2099061;28;20078;-73
2023/10/18 05:09:43;;;;;;;15.85;11.75;;;6.90;99.90;;;;;;2099388;28;20479;-73
2023/10/18 05:10:45;;;;;;;13.35;12.10;;;6.90;99.90;;;;;;2098522;28;20450;-72
2023/10/18 05:11:47;;;;;;;12.70;11.55;;;6.90;99.90;;;;;;2099815;28;20099;-73
2023/10/18 05:12:53;;;;;;;11.52;10.32;;;6.90;99.90;;;;;;2099668;28;20436;-72
2023/10/18 05:13:56;;;;;;;12.10;10.90;;;6.90;99.90;;;;;;2099186;28;20032;-73
2023/10/18 05:16:04;;;;;;;12.15;10.95;;;6.90;99.90;;;;;;2107049;28;20086;-73
2023/10/18 05:17:10;;;;;;;12.25;11.05;;;6.90;99.90;;;;;;2098752;28;20048;-72
2023/10/18 05:18:16;;;;;;;12.70;11.52;;;7.00;99.90;;;;;;2099437;28;20422;-73
2023/10/18 05:19:28;;;;;;;12.73;11.52;;;6.90;99.90;;;;;;2091013;28;20151;-73
2023/10/18 05:20:46;;;;;;;12.15;10.90;;;6.90;99.90;;;;;;2099275;28;20021;-72
2023/10/18 05:21:47;;;;;;;13.80;11.57;;;6.90;99.90;;;;;;2096258;28;20026;-73
2023/10/18 05:22:52;;;;;;;13.27;11.60;;;6.90;99.90;;;;;;2097978;28;20017;-72
2023/10/18 05:23:53;;;;;;;13.25;11.95;;;6.90;99.90;;;;;;2097254;28;20040;-73
2023/10/18 05:26:18;;;;;;;15.38;11.23;;;6.90;99.90;;;;;;2107680;28;20056;-72
2023/10/18 05:27:28;;;;;;;12.68;11.32;;;6.90;99.90;;;;;;2099649;28;20048;-73
2023/10/18 05:28:29;;;;;;;13.30;11.77;;;6.90;99.90;;;;;;2101778;28;20521;-72
2023/10/18 05:29:35;;;;;;;13.27;11.80;;;6.90;99.90;;;;;;2102774;28;20698;-73
2023/10/18 05:32:36;;;;;;;13.95;12.50;;;6.90;99.90;;;;;;2097520;28;20040;-72
2023/10/18 05:34:50;;;;;;;14.02;12.55;;;6.80;99.90;;;;;;2098126;28;20510;-72
2023/10/18 05:35:55;;;;;;;11.50;10.40;;;6.80;99.90;;;;;;2098963;28;20028;-72
2023/10/18 05:36:57;;;;;;;15.30;11.35;;;6.80;99.90;;;;;;2100948;28;20035;-72
2023/10/18 05:37:58;;;;;;;12.27;11.00;;;6.90;99.90;;;;;;2102807;28;20382;-73
2023/10/18 05:41:45;;;;;;;13.05;11.65;;;6.90;99.90;;;;;;2098269;28;20117;-74
2023/10/18 05:42:46;;;;;;;12.90;11.55;;;6.80;99.90;;;;;;2099885;28;20101;-73
2023/10/18 05:43:47;;;;;;;14.63;11.52;;;6.90;99.90;;;;;;2098732;28;20182;-73
2023/10/18 05:44:47;;;;;;;13.88;11.30;;;6.90;99.90;;;;;;2095350;28;20017;-73
2023/10/18 05:45:50;;;;;;;12.52;11.35;;;6.90;99.90;;;;;;2101730;28;20335;-73